< Cyclone 199204 1992 Season Cyclone 199206 >
Cyclone 199205 (HARRIET)
General InformationTrack Information on Google MapsDetailed Wind InformationList of All Images || ResourceGoogle EarthGE AnimationAtom FeedGeoJSON
Detalied Best Track (Time Zone = UTC)
Year Month Day Hour Lat. Long. Pressure (hPa) Wind (kt) Class Image Chart
1992 2 24 18 -11.4 101.8 1000 31 2 Image --
1992 2 25 00 -11.1 101.0 995 39 3 Image --
1992 2 25 06 -11.0 100.5 995 39 3 Image --
1992 2 25 12 -11.0 100.0 995 39 3 Image --
1992 2 25 18 -11.1 99.5 995 39 3 Image --
1992 2 26 00 -11.2 99.0 995 39 3 Image --
1992 2 26 06 -11.4 98.5 990 47 3 Image --
1992 2 26 12 -11.7 97.9 985 54 4 Image --
1992 2 26 18 -11.8 97.4 980 60 4 Image --
1992 2 27 00 -11.9 96.8 978 64 5 Image --
1992 2 27 06 -12.0 96.2 975 66 5 Image --
1992 2 27 12 -12.1 95.7 970 74 5 Image --
1992 2 27 18 -12.1 95.1 965 80 5 Image --
1992 2 28 00 -12.3 94.6 960 84 5 Image --
1992 2 28 06 -12.5 94.1 955 89 5 Image --
1992 2 28 12 -12.8 93.6 955 89 5 Image --
1992 2 28 18 -13.1 93.2 945 99 5 Image --
1992 2 29 00 -13.5 92.8 935 109 5 Image --
1992 2 29 06 -13.9 92.4 935 109 5 Image --
1992 2 29 12 -14.3 91.8 930 113 5 Image --
1992 2 29 18 -14.6 91.2 930 113 5 Image --
1992 3 1 00 -14.8 90.6 930 113 5 Image --
1992 3 1 06 -15.0 89.9 930 113 5 Image --
1992 3 1 12 -15.1 89.3 930 113 5 Image --
1992 3 1 18 -15.1 88.8 935 109 5 Image --
1992 3 2 00 -15.1 88.4 935 109 5 Image --
1992 3 2 06 -15.0 87.9 940 103 5 Image --
1992 3 2 12 -14.8 87.5 940 103 5 Image --
1992 3 2 18 -14.6 87.1 940 103 5 Image --
1992 3 3 00 -14.7 86.7 940 103 5 Image --
1992 3 3 06 -14.8 86.4 940 103 5 Image --
1992 3 3 12 -15.0 86.0 940 103 5 Image --
1992 3 3 18 -15.2 85.7 945 99 5 Image --
1992 3 4 00 -15.5 85.5 945 99 5 Image --
1992 3 4 06 -15.7 85.2 950 95 5 Image --
1992 3 4 12 -16.1 85.0 950 95 5 Image --
1992 3 4 18 -16.7 84.9 945 99 5 Image --
1992 3 5 00 -17.4 85.0 945 99 5 Image --
1992 3 5 06 -18.0 85.1 935 109 5 Image --
1992 3 5 12 -18.6 85.1 940 103 5 Image --
1992 3 5 18 -19.3 85.5 940 103 5 Image --
1992 3 6 00 -19.8 85.8 940 103 5 Image --
1992 3 6 06 -20.6 86.4 945 99 5 Image --
1992 3 6 12 -21.6 87.2 950 95 5 Image --
1992 3 6 18 -22.8 88.2 955 89 5 Image --
1992 3 7 00 -24.1 89.3 960 84 5 Image --
1992 3 7 06 -25.7 90.9 960 84 5 Image --
1992 3 7 12 -27.4 92.7 965 80 5 Image --
1992 3 7 18 -30.4 96.0 970 74 5 Image --
1992 3 8 00 -33.1 99.5 975 66 5 Image --
1992 3 8 06 -35.9 103.5 980 60 4 Image --
1992 3 8 12 -39.9 110.0 990 47 3 Image --
< Cyclone 199204 1992 Season Cyclone 199206 >

Help